createdAt,value
2018-04-15T00:02:18.780Z,101375.78
2018-04-15T00:04:46.426Z,101383.96
2018-04-15T00:07:14.158Z,101378.16
2018-04-15T00:09:41.818Z,101377.05
2018-04-15T00:12:09.434Z,101372.52
2018-04-15T00:14:37.022Z,101376.77
2018-04-15T00:17:04.629Z,101371.95
2018-04-15T00:19:32.249Z,101367.84
2018-04-15T00:21:59.831Z,101369.29
2018-04-15T00:24:27.530Z,101360.28
2018-04-15T00:26:55.905Z,101366.95
2018-04-15T00:29:23.496Z,101368.34
2018-04-15T00:31:51.109Z,101360.69
2018-04-15T00:34:18.689Z,101364.47
2018-04-15T00:36:46.317Z,101361.95
2018-04-15T00:39:13.901Z,101359.56
2018-04-15T00:41:41.509Z,101362.14
2018-04-15T00:44:09.097Z,101346.61
2018-04-15T00:46:36.801Z,101350.28
2018-04-15T00:49:04.399Z,101349.50
2018-04-15T00:51:31.978Z,101343.14
2018-04-15T00:54:11.403Z,101334.45
2018-04-15T00:56:39.010Z,101336.56
2018-04-15T00:59:06.598Z,101328.52
2018-04-15T01:01:34.213Z,101329.83
2018-04-15T01:04:01.809Z,101328.45
2018-04-15T01:06:29.423Z,101326.39
2018-04-15T01:08:57.005Z,101318.24
2018-04-15T01:11:24.626Z,101327.42
2018-04-15T01:13:52.261Z,101324.00
2018-04-15T01:16:19.921Z,101315.81
2018-04-15T01:18:47.524Z,101320.53
2018-04-15T01:21:15.143Z,101324.28
2018-04-15T01:23:42.736Z,101326.00
2018-04-15T01:26:10.317Z,101317.91
2018-04-15T01:28:37.928Z,101324.77
2018-04-15T01:31:05.610Z,101323.30
2018-04-15T01:33:33.225Z,101319.62
2018-04-15T01:36:00.834Z,101324.59
2018-04-15T01:38:28.458Z,101321.59
2018-04-15T01:40:56.040Z,101320.80
2018-04-15T01:43:23.629Z,101320.70
2018-04-15T01:45:51.209Z,101330.17
2018-04-15T01:48:18.788Z,101321.82
2018-04-15T01:50:46.368Z,101328.73
2018-04-15T01:53:13.959Z,101326.91
2018-04-15T01:55:41.537Z,101322.58
2018-04-15T01:58:09.169Z,101317.73
2018-04-15T02:00:36.762Z,101315.81
2018-04-15T02:03:05.423Z,101320.67
2018-04-15T02:05:33.004Z,101308.64
2018-04-15T02:08:00.589Z,101311.74
2018-04-15T02:10:28.178Z,101313.18
2018-04-15T02:12:55.796Z,101311.81
2018-04-15T02:15:23.402Z,101311.06
2018-04-15T02:17:50.990Z,101317.36
2018-04-15T02:20:18.582Z,101305.48
2018-04-15T02:22:46.165Z,101305.06
2018-04-15T02:25:13.756Z,101311.44
2018-04-15T02:27:41.490Z,101303.67
2018-04-15T02:30:09.161Z,101308.00
2018-04-15T02:32:36.750Z,101296.38
2018-04-15T02:35:04.421Z,101297.42
2018-04-15T02:37:32.011Z,101304.82
2018-04-15T02:39:59.593Z,101298.70
2018-04-15T02:42:27.824Z,101295.34
2018-04-15T02:44:55.421Z,101289.34
2018-04-15T02:47:23.007Z,101287.67
2018-04-15T02:49:50.598Z,101285.10
2018-04-15T02:52:18.180Z,101282.22
2018-04-15T02:54:45.765Z,101277.75
2018-04-15T02:57:13.373Z,101267.73
2018-04-15T02:59:41.193Z,101265.98
2018-04-15T03:02:08.810Z,101256.00
2018-04-15T03:04:36.394Z,101252.89
2018-04-15T03:07:04.006Z,101250.97
2018-04-15T03:09:31.596Z,101253.41
2018-04-15T03:11:59.223Z,101251.91
2018-04-15T03:14:26.894Z,101249.86
2018-04-15T03:16:54.476Z,101254.13
2018-04-15T03:19:22.989Z,101253.25
2018-04-15T03:21:51.276Z,101246.38
2018-04-15T03:24:18.889Z,101258.81
2018-04-15T03:26:46.479Z,101254.84
2018-04-15T03:29:14.060Z,101257.78
2018-04-15T03:31:42.433Z,101256.71
2018-04-15T03:34:10.792Z,101265.59
2018-04-15T03:36:38.377Z,101263.69
2018-04-15T03:39:06.954Z,101260.13
2018-04-15T03:41:34.533Z,101262.15
2018-04-15T03:44:02.141Z,101261.91
2018-04-15T03:46:29.761Z,101265.80
2018-04-15T03:48:57.353Z,101265.16
2018-04-15T03:51:25.091Z,101264.53
2018-04-15T03:53:52.675Z,101261.96
2018-04-15T03:56:20.261Z,101259.38
2018-04-15T03:58:47.842Z,101255.59
2018-04-15T04:01:15.422Z,101243.95
2018-04-15T04:03:43.041Z,101236.99
2018-04-15T04:06:10.621Z,101247.16
2018-04-15T04:08:38.237Z,101242.49
2018-04-15T04:11:05.827Z,101238.53
2018-04-15T04:13:33.468Z,101224.73
2018-04-15T04:16:01.053Z,101227.16
2018-04-15T04:18:40.552Z,101230.39
2018-04-15T04:21:20.002Z,101234.02
2018-04-15T04:23:59.505Z,101237.82
2018-04-15T04:26:27.110Z,101221.95
2018-04-15T04:28:55.630Z,101232.17
2018-04-15T04:31:23.237Z,101232.59
2018-04-15T04:33:50.852Z,101231.44
2018-04-15T04:36:18.464Z,101234.23
2018-04-15T04:38:46.051Z,101233.63
2018-04-15T04:41:13.637Z,101224.95
2018-04-15T04:43:41.220Z,101223.29
2018-04-15T04:46:08.797Z,101213.34
2018-04-15T04:48:36.385Z,101215.54
2018-04-15T04:51:03.965Z,101218.11
2018-04-15T04:53:31.554Z,101220.55
2018-04-15T04:55:59.132Z,101216.25
2018-04-15T04:58:26.716Z,101213.35
2018-04-15T05:00:54.296Z,101222.56
2018-04-15T05:03:21.878Z,101218.55
2018-04-15T05:05:49.473Z,101214.23
2018-04-15T05:08:17.061Z,101208.30
2018-04-15T05:10:44.760Z,101205.63
2018-04-15T05:15:48.382Z,101213.59
2018-04-15T05:18:15.963Z,101223.81
2018-04-15T05:20:43.584Z,101218.34
2018-04-15T05:23:11.742Z,101223.64
2018-04-15T05:25:39.423Z,101217.13
2018-04-15T05:28:07.781Z,101223.35
2018-04-15T05:30:35.360Z,101229.78
2018-04-15T05:33:03.023Z,101229.87
2018-04-15T05:35:30.695Z,101230.23
2018-04-15T05:37:58.277Z,101221.45
2018-04-15T05:40:26.909Z,101220.13
2018-04-15T05:42:54.489Z,101229.28
2018-04-15T05:45:22.102Z,101226.59
2018-04-15T05:47:49.719Z,101225.16
2018-04-15T05:50:17.349Z,101236.38
2018-04-15T05:52:44.930Z,101234.13
2018-04-15T05:55:12.547Z,101235.52
2018-04-15T05:57:40.134Z,101234.61
2018-04-15T06:00:07.779Z,101229.89
2018-04-15T06:02:35.369Z,101223.02
2018-04-15T06:05:03.899Z,101212.78
2018-04-15T06:07:31.486Z,101208.39
2018-04-15T06:10:00.085Z,101210.07
2018-04-15T06:12:27.783Z,101201.89
2018-04-15T06:14:55.446Z,101187.32
2018-04-15T06:17:23.092Z,101184.43
2018-04-15T06:19:50.706Z,101190.35
2018-04-15T06:22:18.438Z,101196.67
2018-04-15T06:24:46.022Z,101189.89
2018-04-15T06:27:13.645Z,101190.92
2018-04-15T06:29:42.136Z,101188.22
2018-04-15T06:32:10.388Z,101177.62
2018-04-15T06:34:39.215Z,101183.88
2018-04-15T06:37:07.791Z,101183.42
2018-04-15T06:39:36.530Z,101178.13
2018-04-15T06:42:05.715Z,101183.94
2018-04-15T06:44:33.446Z,101175.72
2018-04-15T06:47:01.114Z,101170.68
2018-04-15T06:49:28.774Z,101161.61
2018-04-15T06:51:56.362Z,101157.27
2018-04-15T06:54:23.951Z,101148.03
2018-04-15T06:56:51.537Z,101140.91
2018-04-15T06:59:19.215Z,101127.35
2018-04-15T07:01:46.828Z,101125.98
2018-04-15T07:04:14.441Z,101113.16
2018-04-15T07:06:42.102Z,101105.65
2018-04-15T07:09:09.760Z,101104.50
2018-04-15T07:11:37.349Z,101100.33
2018-04-15T07:14:05.859Z,101100.56
2018-04-15T07:16:33.502Z,101093.03
2018-04-15T07:19:02.837Z,101101.49
2018-04-15T07:21:31.341Z,101101.53
2018-04-15T07:23:58.925Z,101092.38
2018-04-15T07:26:27.447Z,101094.00
2018-04-15T07:28:55.026Z,101087.94
2018-04-15T07:31:22.611Z,101085.13
2018-04-15T07:33:50.258Z,101084.73
2018-04-15T07:36:17.917Z,101075.08
2018-04-15T07:38:45.529Z,101070.76
2018-04-15T07:41:13.653Z,101077.03
2018-04-15T07:43:41.262Z,101085.01
2018-04-15T07:46:08.879Z,101082.04
2018-04-15T07:48:36.459Z,101075.52
2018-04-15T07:51:04.039Z,101075.73
2018-04-15T07:53:31.626Z,101073.98
2018-04-15T07:55:59.229Z,101075.03
2018-04-15T07:58:26.920Z,101076.23
2018-04-15T08:00:54.500Z,101071.44
2018-04-15T08:03:22.132Z,101061.36
2018-04-15T08:05:49.718Z,101052.52
2018-04-15T08:08:17.365Z,101052.58
2018-04-15T08:10:51.692Z,101038.88
2018-04-15T08:13:19.285Z,101031.30
2018-04-15T08:15:46.863Z,101029.41
2018-04-15T08:18:14.441Z,101020.55
2018-04-15T08:20:42.153Z,101013.60
2018-04-15T08:23:10.506Z,101016.02
2018-04-15T08:25:38.090Z,101013.69
2018-04-15T08:28:06.703Z,101015.22
2018-04-15T08:30:34.281Z,101012.34
2018-04-15T08:33:01.860Z,101025.48
2018-04-15T08:35:29.437Z,101019.64
2018-04-15T08:37:57.013Z,101013.82
2018-04-15T08:40:24.689Z,101016.41
2018-04-15T08:42:52.352Z,101012.80
2018-04-15T08:45:20.018Z,101005.68
2018-04-15T08:47:47.614Z,101007.94
2018-04-15T08:50:15.193Z,100999.75
2018-04-15T08:52:43.566Z,101003.73
2018-04-15T08:55:11.984Z,101003.36
2018-04-15T08:57:40.389Z,101002.83
2018-04-15T09:00:07.999Z,101006.87
2018-04-15T09:02:35.607Z,101004.09
2018-04-15T09:05:03.887Z,100997.80
2018-04-15T09:07:31.493Z,100998.53
2018-04-15T09:09:59.925Z,100995.56
2018-04-15T09:12:28.863Z,100989.25
2018-04-15T09:14:56.485Z,100989.13
2018-04-15T09:17:25.022Z,100988.90
2018-04-15T09:19:52.608Z,100987.64
2018-04-15T09:22:20.679Z,100987.66
2018-04-15T09:24:49.128Z,100985.85
2018-04-15T09:27:17.999Z,100984.76
2018-04-15T09:29:46.014Z,100978.55
2018-04-15T09:32:14.383Z,100973.78
2018-04-15T09:34:42.825Z,100976.48
2018-04-15T09:37:11.847Z,100978.16
2018-04-15T09:39:40.100Z,100975.41
2018-04-15T09:42:08.296Z,100977.39
2018-04-15T09:44:36.926Z,100977.97
2018-04-15T09:47:05.169Z,100974.16
2018-04-15T09:49:33.277Z,100967.31
2018-04-15T09:52:00.956Z,100969.54
2018-04-15T09:54:28.540Z,100962.48
2018-04-15T09:56:56.166Z,100958.56
2018-04-15T09:59:23.824Z,100948.21
2018-04-15T10:01:52.366Z,100944.63
2018-04-15T10:04:19.977Z,100943.94
2018-04-15T10:06:47.634Z,100944.47
2018-04-15T10:09:15.298Z,100948.90
2018-04-15T10:11:43.059Z,100947.81
2018-04-15T10:14:10.645Z,100944.86
2018-04-15T10:16:38.292Z,100936.44
2018-04-15T10:19:05.953Z,100935.29
2018-04-15T10:21:34.088Z,100933.91
2018-04-15T10:24:02.776Z,100931.30
2018-04-15T10:26:30.494Z,100911.12
2018-04-15T10:28:58.097Z,100908.13
2018-04-15T10:31:25.701Z,100900.49
2018-04-15T10:33:53.366Z,100891.30
2018-04-15T10:36:20.977Z,100893.66
2018-04-15T10:38:48.586Z,100891.22
2018-04-15T10:41:16.206Z,100881.30
2018-04-15T10:43:43.917Z,100874.37
2018-04-15T10:46:11.577Z,100867.16
2018-04-15T10:48:39.240Z,100867.81
2018-04-15T10:51:07.581Z,100864.45
2018-04-15T10:53:35.285Z,100868.17
2018-04-15T10:56:03.788Z,100865.48
2018-04-15T10:58:31.428Z,100863.81
2018-04-15T11:00:59.034Z,100854.09
2018-04-15T11:03:26.649Z,100857.98
2018-04-15T11:05:54.270Z,100855.08
2018-04-15T11:08:21.851Z,100851.17
2018-04-15T11:10:49.438Z,100851.02
2018-04-15T11:13:17.017Z,100846.53
2018-04-15T11:15:45.074Z,100846.97
2018-04-15T11:18:12.649Z,100843.02
2018-04-15T11:20:40.758Z,100842.55
2018-04-15T11:23:08.374Z,100834.34
2018-04-15T11:25:35.951Z,100840.58
2018-04-15T11:28:03.522Z,100833.10
2018-04-15T11:30:31.149Z,100828.81
2018-04-15T11:32:58.814Z,100826.52
2018-04-15T11:35:26.536Z,100823.42
2018-04-15T11:37:54.106Z,100823.64
2018-04-15T11:40:21.698Z,100820.03
2018-04-15T11:42:49.365Z,100824.39
2018-04-15T11:45:17.083Z,100821.60
2018-04-15T11:47:44.652Z,100813.30
2018-04-15T11:50:12.217Z,100805.64
2018-04-15T11:52:39.789Z,100803.29
2018-04-15T11:55:07.469Z,100797.06
2018-04-15T11:57:35.073Z,100799.97
2018-04-15T12:00:02.754Z,100808.16
2018-04-15T12:02:31.234Z,100802.10
2018-04-15T12:04:58.843Z,100806.67
2018-04-15T12:07:28.300Z,100804.17
2018-04-15T12:09:57.979Z,100807.01
2018-04-15T12:12:26.146Z,100796.49
2018-04-15T12:14:54.631Z,100804.54
2018-04-15T12:17:22.692Z,100793.90
2018-04-15T12:19:50.903Z,100795.83
2018-04-15T12:22:19.766Z,100787.78
2018-04-15T12:24:47.844Z,100786.47
2018-04-15T12:27:15.852Z,100789.22
2018-04-15T12:29:44.847Z,100783.22
2018-04-15T12:32:13.860Z,100775.80
2018-04-15T12:34:42.591Z,100765.73
2018-04-15T12:37:11.042Z,100763.94
2018-04-15T12:39:38.906Z,100751.09
2018-04-15T12:42:07.443Z,100757.90
2018-04-15T12:44:35.618Z,100759.49
2018-04-15T12:47:03.900Z,100753.43
2018-04-15T12:49:32.216Z,100748.48
2018-04-15T12:52:01.738Z,100745.75
2018-04-15T12:54:31.310Z,100741.45
2018-04-15T12:56:59.995Z,100732.30
2018-04-15T12:59:28.311Z,100735.89
2018-04-15T13:01:57.554Z,100734.32
2018-04-15T13:04:25.648Z,100733.73
2018-04-15T13:06:53.345Z,100720.25
2018-04-15T13:09:20.922Z,100717.83
2018-04-15T13:11:48.501Z,100712.53
2018-04-15T13:14:16.081Z,100710.12
2018-04-15T13:16:44.522Z,100705.91
2018-04-15T13:19:12.101Z,100700.59
2018-04-15T13:21:39.677Z,100699.86
2018-04-15T13:24:07.259Z,100693.72
2018-04-15T13:26:34.965Z,100689.64
2018-04-15T13:29:02.549Z,100685.98
2018-04-15T13:31:30.125Z,100691.33
2018-04-15T13:33:57.752Z,100688.63
2018-04-15T13:36:25.329Z,100676.33
2018-04-15T13:38:52.944Z,100673.33
2018-04-15T13:41:20.593Z,100667.66
2018-04-15T13:43:48.168Z,100662.92
2018-04-15T13:46:15.758Z,100660.89
2018-04-15T13:48:43.457Z,100664.89
2018-04-15T13:51:11.037Z,100661.30
2018-04-15T13:53:38.682Z,100659.14
2018-04-15T13:56:06.256Z,100656.50
2018-04-15T13:58:33.969Z,100647.30
2018-04-15T14:01:01.583Z,100643.70
2018-04-15T14:03:29.153Z,100644.31
2018-04-15T14:05:56.758Z,100633.58
2018-04-15T14:08:24.340Z,100629.78
2018-04-15T14:10:51.950Z,100621.25
2018-04-15T14:13:19.528Z,100624.84
2018-04-15T14:15:47.105Z,100623.77
2018-04-15T14:18:14.717Z,100620.80
2018-04-15T14:20:42.428Z,100613.22
2018-04-15T14:23:09.997Z,100610.44
2018-04-15T14:25:37.645Z,100608.09
2018-04-15T14:28:05.245Z,100606.09
2018-04-15T14:30:32.830Z,100603.31
2018-04-15T14:33:00.398Z,100599.55
2018-04-15T14:35:27.989Z,100596.15
2018-04-15T14:37:55.573Z,100594.78
2018-04-15T14:40:23.230Z,100598.27
2018-04-15T14:42:50.813Z,100594.16
2018-04-15T14:45:18.392Z,100589.24
2018-04-15T14:47:46.022Z,100592.30
2018-04-15T14:50:13.627Z,100592.30
2018-04-15T14:52:41.205Z,100583.58
2018-04-15T14:55:09.694Z,100578.48
2018-04-15T14:57:38.068Z,100585.02
2018-04-15T15:00:05.763Z,100585.22
2018-04-15T15:02:34.195Z,100587.03
2018-04-15T15:05:01.775Z,100578.48
2018-04-15T15:07:30.277Z,100569.74
2018-04-15T15:09:57.857Z,100574.31
2018-04-15T15:12:26.425Z,100563.36
2018-04-15T15:14:54.005Z,100564.05
2018-04-15T15:17:21.581Z,100563.69
2018-04-15T15:19:50.033Z,100561.05
2018-04-15T15:22:17.700Z,100554.55
2018-04-15T15:24:45.306Z,100563.52
2018-04-15T15:27:13.840Z,100554.82
2018-04-15T15:29:41.420Z,100560.86
2018-04-15T15:32:10.014Z,100558.11
2018-04-15T15:34:37.645Z,100549.64
2018-04-15T15:37:05.267Z,100542.72
2018-04-15T15:39:32.841Z,100549.87
2018-04-15T15:42:00.534Z,100540.92
2018-04-15T15:44:28.124Z,100548.25
2018-04-15T15:46:55.755Z,100549.42
2018-04-15T15:49:23.343Z,100549.14
2018-04-15T15:51:51.041Z,100552.81
2018-04-15T15:54:20.140Z,100548.25
2018-04-15T15:56:48.525Z,100532.17
2018-04-15T15:59:16.580Z,100534.38
2018-04-15T16:01:44.159Z,100519.80
2018-04-15T16:04:12.673Z,100532.58
2018-04-15T16:06:40.282Z,100532.05
2018-04-15T16:09:08.752Z,100533.69
2018-04-15T16:11:36.358Z,100531.04
2018-04-15T16:14:03.966Z,100526.45
2018-04-15T16:16:31.547Z,100519.59
2018-04-15T16:18:59.127Z,100529.19
2018-04-15T16:21:27.598Z,100524.13
2018-04-15T16:23:55.173Z,100519.86
2018-04-15T16:26:23.610Z,100519.11
2018-04-15T16:28:51.185Z,100510.55
2018-04-15T16:31:18.794Z,100516.02
2018-04-15T16:33:46.371Z,100519.25
2018-04-15T16:36:14.038Z,100523.00
2018-04-15T16:38:41.613Z,100520.67
2018-04-15T16:41:09.225Z,100516.50
2018-04-15T16:43:36.845Z,100517.63
2018-04-15T16:46:04.424Z,100513.64
2018-04-15T16:48:32.048Z,100515.62
2018-04-15T16:50:59.631Z,100505.96
2018-04-15T16:53:27.349Z,100517.33
2018-04-15T16:55:54.989Z,100514.56
2018-04-15T16:58:22.703Z,100515.71
2018-04-15T17:01:00.875Z,100515.47
2018-04-15T17:03:29.254Z,100513.33
2018-04-15T17:05:56.863Z,100514.34
2018-04-15T17:08:24.533Z,100518.34
2018-04-15T17:10:52.162Z,100520.48
2018-04-15T17:13:19.766Z,100520.82
2018-04-15T17:15:47.393Z,100532.78
2018-04-15T17:18:15.016Z,100525.62
2018-04-15T17:20:42.588Z,100529.15
2018-04-15T17:23:10.211Z,100532.06
2018-04-15T17:25:37.789Z,100534.00
2018-04-15T17:28:05.445Z,100532.05
2018-04-15T17:30:33.834Z,100538.06
2018-04-15T17:33:01.412Z,100545.09
2018-04-15T17:35:28.992Z,100541.98
2018-04-15T17:37:56.565Z,100551.61
2018-04-15T17:40:24.193Z,100550.99
2018-04-15T17:42:51.897Z,100553.81
2018-04-15T17:45:19.785Z,100556.77
2018-04-15T17:47:47.427Z,100563.63
2018-04-15T17:50:15.247Z,100562.63
2018-04-15T17:52:42.862Z,100571.17
2018-04-15T17:55:10.474Z,100573.87
2018-04-15T17:57:38.178Z,100574.70
2018-04-15T18:00:05.760Z,100577.19
2018-04-15T18:02:33.400Z,100581.33
2018-04-15T18:05:01.034Z,100589.68
2018-04-15T18:07:29.449Z,100590.19
2018-04-15T18:09:57.026Z,100590.41
2018-04-15T18:12:25.614Z,100598.07
2018-04-15T18:14:53.258Z,100597.41
2018-04-15T18:17:20.953Z,100600.95
2018-04-15T18:19:48.533Z,100591.80
2018-04-15T18:22:16.195Z,100591.55
2018-04-15T18:24:43.810Z,100593.80
2018-04-15T18:27:11.466Z,100587.58
2018-04-15T18:29:39.082Z,100582.30
2018-04-15T18:32:06.660Z,100576.16
2018-04-15T18:34:34.358Z,100564.91
2018-04-15T18:37:02.044Z,100568.39
2018-04-15T18:39:29.736Z,100573.75
2018-04-15T18:41:57.347Z,100575.07
2018-04-15T18:44:25.049Z,100585.64
2018-04-15T18:46:52.631Z,100583.72
2018-04-15T18:49:20.213Z,100588.09
2018-04-15T18:51:47.899Z,100588.05
2018-04-15T18:54:15.511Z,100583.13
2018-04-15T18:56:43.126Z,100581.59
2018-04-15T18:59:10.790Z,100576.61
2018-04-15T19:01:38.606Z,100574.19
2018-04-15T19:04:06.981Z,100566.59
2018-04-15T19:06:35.418Z,100569.61
2018-04-15T19:09:03.853Z,100566.11
2018-04-15T19:11:31.425Z,100568.80
2018-04-15T19:13:59.010Z,100569.90
2018-04-15T19:16:27.537Z,100573.42
2018-04-15T19:18:55.184Z,100580.93
2018-04-15T19:21:22.824Z,100579.98
2018-04-15T19:23:51.351Z,100577.97
2018-04-15T19:26:19.225Z,100576.23
2018-04-15T19:28:46.975Z,100577.84
2018-04-15T19:31:14.898Z,100576.36
2018-04-15T19:33:42.552Z,100577.84
2018-04-15T19:36:11.135Z,100574.17
2018-04-15T19:38:38.750Z,100578.50
2018-04-15T19:41:06.349Z,100587.15
2018-04-15T19:43:33.973Z,100583.09
2018-04-15T19:46:01.560Z,100585.27
2018-04-15T19:48:29.171Z,100591.84
2018-04-15T19:50:56.834Z,100588.67
2018-04-15T19:53:24.418Z,100576.73
2018-04-15T19:55:52.045Z,100568.17
2018-04-15T19:58:19.719Z,100566.16
2018-04-15T20:00:47.327Z,100570.90
2018-04-15T20:03:14.938Z,100570.99
2018-04-15T20:05:42.599Z,100565.27
2018-04-15T20:08:10.182Z,100573.30
2018-04-15T20:10:37.825Z,100572.53
2018-04-15T20:13:06.510Z,100573.95
2018-04-15T20:15:34.906Z,100575.32
2018-04-15T20:18:02.523Z,100574.50
2018-04-15T20:20:30.898Z,100577.86
2018-04-15T20:22:58.630Z,100584.34
2018-04-15T20:25:26.299Z,100585.39
2018-04-15T20:27:53.929Z,100582.67
2018-04-15T20:30:21.532Z,100579.20
2018-04-15T20:32:49.350Z,100576.58
2018-04-15T20:35:16.937Z,100581.99
2018-04-15T20:37:44.542Z,100572.21
2018-04-15T20:40:12.129Z,100572.57
2018-04-15T20:42:39.746Z,100572.58
2018-04-15T20:45:07.329Z,100570.99
2018-04-15T20:47:34.935Z,100573.41
2018-04-15T20:50:02.582Z,100565.52
2018-04-15T20:52:30.282Z,100569.77
2018-04-15T20:54:57.942Z,100564.98
2018-04-15T20:57:26.264Z,100574.94
2018-04-15T20:59:53.854Z,100581.94
2018-04-15T21:02:21.519Z,100575.05
2018-04-15T21:04:50.741Z,100581.72
2018-04-15T21:07:18.330Z,100575.49
2018-04-15T21:09:45.914Z,100570.44
2018-04-15T21:12:13.565Z,100567.39
2018-04-15T21:14:41.157Z,100563.60
2018-04-15T21:17:08.742Z,100565.80
2018-04-15T21:19:37.234Z,100565.52
2018-04-15T21:22:04.835Z,100554.37
2018-04-15T21:24:33.242Z,100546.95
2018-04-15T21:27:00.962Z,100547.05
2018-04-15T21:29:28.555Z,100552.02
2018-04-15T21:31:56.137Z,100545.08
2018-04-15T21:34:23.762Z,100545.97
2018-04-15T21:36:52.078Z,100545.84
2018-04-15T21:39:19.695Z,100555.38
2018-04-15T21:41:47.307Z,100558.33
2018-04-15T21:44:14.893Z,100554.30
2018-04-15T21:46:42.529Z,100557.20
2018-04-15T21:49:10.182Z,100560.52
2018-04-15T21:51:37.843Z,100549.92
2018-04-15T21:54:27.437Z,100561.03
2018-04-15T21:56:55.140Z,100560.95
2018-04-15T21:59:22.851Z,100565.83
2018-04-15T22:01:50.437Z,100565.80
2018-04-15T22:04:18.037Z,100568.34
2018-04-15T22:06:45.684Z,100569.42
2018-04-15T22:09:13.294Z,100564.00
2018-04-15T22:11:52.876Z,100561.48
2018-04-15T22:14:20.459Z,100544.02
2018-04-15T22:16:48.069Z,100551.78
2018-04-15T22:19:15.728Z,100551.50
2018-04-15T22:21:44.383Z,100557.41
2018-04-15T22:24:11.962Z,100555.48
2018-04-15T22:26:39.603Z,100561.55
2018-04-15T22:29:07.184Z,100568.28
2018-04-15T22:31:34.854Z,100568.54
2018-04-15T22:34:02.425Z,100572.09
2018-04-15T22:36:30.006Z,100561.94
2018-04-15T22:38:57.626Z,100551.31
2018-04-15T22:41:25.337Z,100552.80
2018-04-15T22:43:52.914Z,100553.84
2018-04-15T22:46:20.524Z,100545.81
2018-04-15T22:48:48.145Z,100551.02
2018-04-15T22:51:16.657Z,100557.03
2018-04-15T22:53:44.289Z,100555.26
2018-04-15T22:56:12.661Z,100554.14
2018-04-15T22:58:45.948Z,100552.81
2018-04-15T23:01:13.558Z,100542.84
2018-04-15T23:03:41.180Z,100541.40
2018-04-15T23:06:08.835Z,100545.60
2018-04-15T23:08:36.421Z,100540.21
2018-04-15T23:11:04.022Z,100533.79
2018-04-15T23:13:31.607Z,100540.84
2018-04-15T23:15:59.193Z,100533.79
2018-04-15T23:18:26.901Z,100530.74
2018-04-15T23:20:54.489Z,100537.67
2018-04-15T23:23:22.876Z,100534.58
2018-04-15T23:25:50.461Z,100539.00
2018-04-15T23:28:18.038Z,100530.69
2018-04-15T23:30:45.648Z,100524.75
2018-04-15T23:33:13.229Z,100530.60
2018-04-15T23:35:40.809Z,100528.39
2018-04-15T23:38:08.467Z,100531.02
2018-04-15T23:40:36.044Z,100546.97
2018-04-15T23:43:03.624Z,100553.69
2018-04-15T23:45:32.073Z,100556.08
2018-04-15T23:47:59.653Z,100554.42
2018-04-15T23:50:27.282Z,100543.75
2018-04-15T23:52:54.864Z,100545.20
2018-04-15T23:55:22.446Z,100544.90
2018-04-15T23:57:50.048Z,100560.17
